createdAt,value
2022-12-27T00:00:35.968Z,101111.06
2022-12-27T00:03:03.481Z,101102.22
2022-12-27T00:05:30.914Z,101103.91
2022-12-27T00:07:58.337Z,101105.75
2022-12-27T00:10:27.067Z,101110.19
2022-12-27T00:12:54.492Z,101117.31
2022-12-27T00:15:21.949Z,101113.84
2022-12-27T00:17:49.343Z,101129.78
2022-12-27T00:20:16.751Z,101122.66
2022-12-27T00:22:44.284Z,101143.78
2022-12-27T00:25:11.759Z,101138.47
2022-12-27T00:27:40.515Z,101143.78
2022-12-27T00:30:08.655Z,101150.06
2022-12-27T00:32:36.110Z,101145.72
2022-12-27T00:35:03.525Z,101143.19
2022-12-27T00:37:30.965Z,101149.34
2022-12-27T00:39:58.377Z,101147.63
2022-12-27T00:42:25.788Z,101148.50
2022-12-27T00:44:54.486Z,101154.66
2022-12-27T00:47:21.905Z,101151.88
2022-12-27T00:49:49.302Z,101158.03
2022-12-27T00:52:16.717Z,101161.69
2022-12-27T00:54:44.132Z,101159.13
2022-12-27T00:57:11.547Z,101164.34
2022-12-27T00:59:38.947Z,101169.78
2022-12-27T01:02:07.659Z,101171.44
2022-12-27T01:04:35.083Z,101173.25
2022-12-27T01:07:02.513Z,101173.16
2022-12-27T01:09:29.949Z,101183.78
2022-12-27T01:11:57.368Z,101182.94
2022-12-27T01:14:24.777Z,101198.13
2022-12-27T01:16:52.260Z,101200.69
2022-12-27T01:19:20.944Z,101197.31
2022-12-27T01:21:48.922Z,101213.13
2022-12-27T01:24:16.338Z,101213.97
2022-12-27T01:26:43.741Z,101227.38
2022-12-27T01:29:12.403Z,101227.38
2022-12-27T01:31:39.903Z,101236.22
2022-12-27T01:34:07.341Z,101232.69
2022-12-27T01:36:36.037Z,101229.19
2022-12-27T01:39:03.518Z,101241.66
2022-12-27T01:41:49.929Z,101234.41
2022-12-27T01:44:49.442Z,101236.34
2022-12-27T01:47:20.552Z,101231.97
2022-12-27T01:49:52.887Z,101238.00
2022-12-27T01:52:21.580Z,101239.72
2022-12-27T01:54:48.997Z,101240.81
2022-12-27T01:57:16.397Z,101238.25
2022-12-27T01:59:43.813Z,101245.97
2022-12-27T02:02:11.523Z,101248.03
2022-12-27T02:04:39.082Z,101248.78
2022-12-27T02:07:06.529Z,101242.72
2022-12-27T02:09:39.205Z,101252.41
2022-12-27T02:12:07.203Z,101246.13
2022-12-27T02:14:35.287Z,101252.28
2022-12-27T02:17:03.582Z,101257.59
2022-12-27T02:19:37.035Z,101260.38
2022-12-27T02:22:30.393Z,101255.06
2022-12-27T02:25:11.248Z,101264.84
2022-12-27T02:27:47.549Z,101272.69
2022-12-27T02:30:17.088Z,101273.66
2022-12-27T02:32:45.798Z,101265.78
2022-12-27T02:35:14.836Z,101283.44
2022-12-27T02:37:44.314Z,101272.06
2022-12-27T02:40:29.494Z,101285.13
2022-12-27T02:43:14.244Z,101278.25
2022-12-27T02:46:02.572Z,101285.25
2022-12-27T02:48:47.915Z,101285.13
2022-12-27T02:51:44.503Z,101286.09
2022-12-27T02:54:19.118Z,101291.41
2022-12-27T02:57:06.808Z,101295.13
2022-12-27T03:00:09.034Z,101300.47
2022-12-27T03:02:59.855Z,101310.13
2022-12-27T03:05:31.556Z,101315.34
2022-12-27T03:08:01.330Z,101319.91
2022-12-27T03:10:50.164Z,101318.13
2022-12-27T03:13:38.443Z,101324.38
2022-12-27T03:16:10.628Z,101332.34
2022-12-27T03:18:50.361Z,101330.53
2022-12-27T03:21:38.026Z,101333.19
2022-12-27T03:24:37.804Z,101339.59
2022-12-27T03:27:06.907Z,101328.84
2022-12-27T03:29:51.657Z,101325.38
2022-12-27T03:32:36.962Z,101335.84
2022-12-27T03:35:08.692Z,101334.91
2022-12-27T03:37:54.745Z,101335.00
2022-12-27T03:40:25.880Z,101334.28
2022-12-27T03:43:13.672Z,101340.53
2022-12-27T03:46:13.204Z,101348.41
2022-12-27T03:48:47.686Z,101346.72
2022-12-27T03:51:16.451Z,101350.34
2022-12-27T03:53:44.632Z,101347.56
2022-12-27T03:56:12.044Z,101359.91
2022-12-27T03:58:39.483Z,101359.91
2022-12-27T04:01:06.931Z,101348.63
2022-12-27T04:03:34.452Z,101346.84
2022-12-27T04:06:01.875Z,101353.94
2022-12-27T04:08:48.521Z,101363.53
2022-12-27T04:11:33.966Z,101363.63
2022-12-27T04:14:18.783Z,101362.78
2022-12-27T04:17:04.113Z,101358.41
2022-12-27T04:19:48.849Z,101356.59
2022-12-27T04:22:34.124Z,101359.16
2022-12-27T04:25:20.796Z,101357.47
2022-12-27T04:28:06.155Z,101359.41
2022-12-27T04:30:50.992Z,101360.25
2022-12-27T04:33:36.329Z,101357.59
2022-12-27T04:36:06.444Z,101345.88
2022-12-27T04:38:34.132Z,101353.09
2022-12-27T04:41:20.587Z,101356.75
2022-12-27T04:44:05.903Z,101358.41
2022-12-27T04:46:50.676Z,101364.56
2022-12-27T04:49:39.163Z,101368.09
2022-12-27T04:52:30.211Z,101366.50
2022-12-27T04:54:57.617Z,101378.84
2022-12-27T04:57:26.697Z,101378.84
2022-12-27T05:00:12.001Z,101371.81
2022-12-27T05:02:39.517Z,101377.13
2022-12-27T05:05:08.121Z,101369.16
2022-12-27T05:07:53.030Z,101376.28
2022-12-27T05:10:38.304Z,101367.50
2022-12-27T05:13:24.879Z,101374.25
2022-12-27T05:15:52.372Z,101370.16
2022-12-27T05:18:19.888Z,101374.47
2022-12-27T05:20:47.321Z,101382.34
2022-12-27T05:23:32.452Z,101380.78
2022-12-27T05:25:59.857Z,101376.28
2022-12-27T05:28:28.552Z,101381.72
2022-12-27T05:30:55.991Z,101382.44
2022-12-27T05:33:23.428Z,101387.88
2022-12-27T05:35:50.831Z,101382.66
2022-12-27T05:38:18.339Z,101391.41
2022-12-27T05:40:45.743Z,101385.31
2022-12-27T05:43:13.155Z,101394.06
2022-12-27T05:45:41.862Z,101399.38
2022-12-27T05:48:09.264Z,101396.84
2022-12-27T05:50:36.666Z,101406.59
2022-12-27T05:53:13.281Z,101407.47
2022-12-27T05:55:41.052Z,101404.81
2022-12-27T05:58:08.466Z,101402.25
2022-12-27T06:00:35.910Z,101413.72
2022-12-27T06:03:04.890Z,101415.44
2022-12-27T06:05:32.369Z,101417.38
2022-12-27T06:07:59.804Z,101415.53
2022-12-27T06:10:27.212Z,101421.81
2022-12-27T06:12:54.629Z,101422.69
2022-12-27T06:15:22.032Z,101417.47
2022-12-27T06:17:49.884Z,101428.09
2022-12-27T06:20:19.035Z,101422.69
2022-12-27T06:22:46.433Z,101428.81
2022-12-27T06:25:14.468Z,101425.34
2022-12-27T06:27:42.130Z,101433.31
2022-12-27T06:30:12.051Z,101428.59
2022-12-27T06:32:39.479Z,101421.81
2022-12-27T06:35:07.622Z,101419.25
2022-12-27T06:37:36.315Z,101422.78
2022-12-27T06:40:03.913Z,101426.28
2022-12-27T06:42:31.419Z,101426.16
2022-12-27T06:44:58.946Z,101422.78
2022-12-27T06:47:26.350Z,101425.44
2022-12-27T06:49:53.760Z,101422.78
2022-12-27T06:52:23.095Z,101432.53
2022-12-27T06:54:51.802Z,101426.28
2022-12-27T06:57:19.213Z,101419.38
2022-12-27T06:59:50.974Z,101424.56
2022-12-27T07:02:21.448Z,101430.75
2022-12-27T07:04:48.942Z,101436.19
2022-12-27T07:07:16.387Z,101438.84
2022-12-27T07:09:43.784Z,101441.50
2022-12-27T07:12:12.476Z,101448.59
2022-12-27T07:14:39.983Z,101447.53
2022-12-27T07:17:07.397Z,101454.66
2022-12-27T07:19:34.815Z,101450.31
2022-12-27T07:22:02.248Z,101458.38
2022-12-27T07:24:32.121Z,101463.59
2022-12-27T07:26:59.539Z,101476.88
2022-12-27T07:29:28.482Z,101477.81
2022-12-27T07:31:55.940Z,101480.47
2022-12-27T07:34:23.425Z,101484.00
2022-12-27T07:36:50.831Z,101479.66
2022-12-27T07:39:18.748Z,101489.31
2022-12-27T07:41:46.152Z,101493.91
2022-12-27T07:44:14.850Z,101500.91
2022-12-27T07:46:43.932Z,101493.75
2022-12-27T07:49:17.313Z,101503.56
2022-12-27T07:51:45.349Z,101507.19
2022-12-27T07:54:13.713Z,101508.75
2022-12-27T07:56:41.156Z,101516.94
2022-12-27T07:59:10.533Z,101520.34
2022-12-27T08:01:57.778Z,101515.03
2022-12-27T08:04:26.539Z,101519.50
2022-12-27T08:06:53.948Z,101521.94
2022-12-27T08:09:25.066Z,101526.41
2022-12-27T08:11:52.509Z,101525.66
2022-12-27T08:14:19.906Z,101521.31
2022-12-27T08:16:47.341Z,101521.31
2022-12-27T08:19:14.768Z,101527.47
2022-12-27T08:21:43.460Z,101537.25
2022-12-27T08:24:10.877Z,101545.13
2022-12-27T08:26:38.287Z,101526.63
2022-12-27T08:29:05.745Z,101534.72
2022-12-27T08:31:33.141Z,101537.25
2022-12-27T08:34:00.541Z,101532.91
2022-12-27T08:36:54.079Z,101531.22
2022-12-27T08:39:16.612Z,101531.31
2022-12-27T08:41:44.001Z,101523.25
2022-12-27T08:44:11.486Z,101532.16
2022-12-27T08:46:38.921Z,101526.84
2022-12-27T08:49:06.546Z,101519.59
2022-12-27T08:51:40.677Z,101528.75
2022-12-27T08:54:09.258Z,101532.91
2022-12-27T08:56:38.217Z,101539.19
2022-12-27T08:59:05.618Z,101532.06
2022-12-27T09:01:33.166Z,101529.41
2022-12-27T09:04:00.643Z,101538.94
2022-12-27T09:06:28.493Z,101547.88
2022-12-27T09:08:56.043Z,101548.00
2022-12-27T09:11:24.607Z,101555.13
2022-12-27T09:13:53.319Z,101562.13
2022-12-27T09:16:21.882Z,101562.13
2022-12-27T09:18:50.915Z,101565.75
2022-12-27T09:21:18.824Z,101564.03
2022-12-27T09:23:46.550Z,101565.00
2022-12-27T09:26:14.969Z,101557.88
2022-12-27T09:28:42.526Z,101556.81
2022-12-27T09:31:11.618Z,101566.28
2022-12-27T09:33:39.242Z,101561.91
2022-12-27T09:36:08.120Z,101560.19
2022-12-27T09:38:35.632Z,101562.00
2022-12-27T09:41:04.966Z,101564.47
2022-12-27T09:43:38.003Z,101570.41
2022-12-27T09:46:05.604Z,101568.69
2022-12-27T09:48:35.354Z,101560.72
2022-12-27T09:51:04.359Z,101563.63
2022-12-27T09:53:37.057Z,101562.34
2022-12-27T09:56:05.219Z,101556.19
2022-12-27T09:58:38.722Z,101566.56
2022-12-27T10:01:13.626Z,101548.72
2022-12-27T10:03:42.376Z,101562.13
2022-12-27T10:06:15.436Z,101557.66
2022-12-27T10:08:44.593Z,101575.06
2022-12-27T10:11:35.461Z,101557.53
2022-12-27T10:14:03.949Z,101560.81
2022-12-27T10:16:33.753Z,101561.78
2022-12-27T10:19:18.509Z,101565.28
2022-12-27T10:21:53.290Z,101564.31
2022-12-27T10:24:21.745Z,101559.88
2022-12-27T10:26:49.151Z,101571.25
2022-12-27T10:29:20.010Z,101561.34
2022-12-27T10:31:47.483Z,101571.97
2022-12-27T10:34:17.684Z,101569.31
2022-12-27T10:36:45.426Z,101582.72
2022-12-27T10:39:17.170Z,101577.28
2022-12-27T10:41:50.161Z,101576.44
2022-12-27T10:44:18.016Z,101584.53
2022-12-27T10:46:45.681Z,101579.31
2022-12-27T10:49:23.754Z,101594.97
2022-12-27T10:51:51.819Z,101592.28
2022-12-27T10:54:22.275Z,101602.94
2022-12-27T10:56:50.104Z,101601.94
2022-12-27T10:59:18.458Z,101603.78
2022-12-27T11:01:48.643Z,101605.34
2022-12-27T11:04:21.044Z,101598.56
2022-12-27T11:06:51.640Z,101602.31
2022-12-27T11:09:30.346Z,101603.13
2022-12-27T11:12:17.967Z,101603.13
2022-12-27T11:14:55.225Z,101599.75
2022-12-27T11:17:23.510Z,101613.03
2022-12-27T11:19:51.241Z,101611.31
2022-12-27T11:22:20.213Z,101611.53
2022-12-27T11:24:48.274Z,101618.56
2022-12-27T11:27:22.469Z,101614.09
2022-12-27T11:29:50.028Z,101615.91
2022-12-27T11:32:17.458Z,101610.69
2022-12-27T11:34:45.471Z,101601.88
2022-12-27T11:37:15.726Z,101593.13
2022-12-27T11:39:45.057Z,101605.47
2022-12-27T11:42:17.952Z,101613.47
2022-12-27T11:44:47.234Z,101606.44
2022-12-27T11:47:16.987Z,101604.53
2022-12-27T11:49:47.313Z,101609.97
2022-12-27T11:52:22.749Z,101612.72
2022-12-27T11:55:22.744Z,101604.66
2022-12-27T11:58:09.340Z,101606.44
2022-12-27T12:00:39.265Z,101616.13
2022-12-27T12:03:28.283Z,101613.66
2022-12-27T12:06:01.661Z,101618.78
2022-12-27T12:08:40.346Z,101612.72
2022-12-27T12:11:16.007Z,101630.59
2022-12-27T12:13:51.759Z,101629.63
2022-12-27T12:16:27.631Z,101627.94
2022-12-27T12:19:02.858Z,101637.69
2022-12-27T12:21:31.985Z,101633.97
2022-12-27T12:24:18.059Z,101637.69
2022-12-27T12:26:55.680Z,101641.44
2022-12-27T12:29:38.927Z,101630.69
2022-12-27T12:32:17.287Z,101641.31
2022-12-27T12:34:53.467Z,101640.44
2022-12-27T12:37:33.433Z,101635.13
2022-12-27T12:40:10.536Z,101644.94
2022-12-27T12:42:41.886Z,101653.53
2022-12-27T12:45:28.426Z,101640.44
2022-12-27T12:48:08.088Z,101649.09
2022-12-27T12:50:43.934Z,101644.81
2022-12-27T12:53:19.817Z,101637.94
2022-12-27T12:56:00.040Z,101634.41
2022-12-27T12:58:38.197Z,101648.44
2022-12-27T13:01:14.142Z,101638.88
2022-12-27T13:04:11.188Z,101650.13
2022-12-27T13:07:21.193Z,101652.91
2022-12-27T13:09:54.363Z,101654.72
2022-12-27T13:12:23.875Z,101647.69
2022-12-27T13:15:14.330Z,101663.63
2022-12-27T13:17:46.734Z,101664.28
2022-12-27T13:20:30.095Z,101670.47
2022-12-27T13:23:01.127Z,101677.34
2022-12-27T13:25:32.637Z,101678.44
2022-12-27T13:28:03.230Z,101671.59
2022-12-27T13:30:35.243Z,101678.63
2022-12-27T13:33:10.443Z,101679.38
2022-12-27T13:35:49.436Z,101673.94
2022-12-27T13:38:27.972Z,101669.47
2022-12-27T13:41:12.613Z,101682.88
2022-12-27T13:44:01.954Z,101686.41
2022-12-27T13:46:52.726Z,101689.81
2022-12-27T13:49:46.494Z,101685.44
2022-12-27T13:52:23.374Z,101692.56
2022-12-27T13:55:12.737Z,101686.41
2022-12-27T13:57:56.094Z,101700.53
2022-12-27T14:00:24.692Z,101691.81
2022-12-27T14:03:23.994Z,101697.13
2022-12-27T14:06:16.523Z,101696.25
2022-12-27T14:08:56.824Z,101707.56
2022-12-27T14:11:32.587Z,101698.72
2022-12-27T14:14:00.200Z,101707.66
2022-12-27T14:16:36.147Z,101693.75
2022-12-27T14:19:24.002Z,101695.31
2022-12-27T14:21:58.997Z,101697.97
2022-12-27T14:24:51.657Z,101702.66
2022-12-27T14:27:48.237Z,101707.03
2022-12-27T14:30:52.793Z,101709.56
2022-12-27T14:33:56.277Z,101711.47
2022-12-27T14:36:42.245Z,101719.44
2022-12-27T14:39:33.133Z,101718.59
2022-12-27T14:42:24.261Z,101725.72
2022-12-27T14:45:14.116Z,101715.84
2022-12-27T14:48:23.302Z,101724.84
2022-12-27T14:51:58.193Z,101720.41
2022-12-27T14:54:44.394Z,101710.72
2022-12-27T14:57:16.492Z,101721.25
2022-12-27T14:59:46.546Z,101716.03
2022-12-27T15:02:25.108Z,101731.16
2022-12-27T15:05:34.481Z,101732.94
2022-12-27T15:08:21.145Z,101740.69
2022-12-27T15:10:56.073Z,101742.63
2022-12-27T15:13:25.720Z,101740.91
2022-12-27T15:15:55.348Z,101746.22
2022-12-27T15:18:31.298Z,101739.22
2022-12-27T15:21:16.060Z,101739.41
2022-12-27T15:23:48.560Z,101745.28
2022-12-27T15:26:20.845Z,101740.16
2022-12-27T15:28:54.166Z,101744.53
2022-12-27T15:31:25.514Z,101744.53
2022-12-27T15:33:57.645Z,101738.47
2022-12-27T15:36:38.013Z,101739.41
2022-12-27T15:39:05.876Z,101744.72
2022-12-27T15:41:49.179Z,101736.03
2022-12-27T15:44:24.242Z,101734.09
2022-12-27T15:47:21.561Z,101732.38
2022-12-27T15:50:10.672Z,101731.44
2022-12-27T15:52:53.327Z,101727.84
2022-12-27T15:55:25.371Z,101726.13
2022-12-27T15:58:03.058Z,101732.19
2022-12-27T16:00:33.870Z,101725.41
2022-12-27T16:03:02.777Z,101734.09
2022-12-27T16:05:48.221Z,101737.50
2022-12-27T16:08:24.987Z,101733.25
2022-12-27T16:10:52.827Z,101727.06
2022-12-27T16:13:53.148Z,101728.78
2022-12-27T16:16:56.926Z,101728.78
2022-12-27T16:19:40.814Z,101724.41
2022-12-27T16:22:19.316Z,101731.56
2022-12-27T16:24:46.759Z,101736.03
2022-12-27T16:27:22.220Z,101736.88
2022-12-27T16:29:49.627Z,101730.72
2022-12-27T16:32:19.104Z,101730.72
2022-12-27T16:34:50.792Z,101734.31
2022-12-27T16:37:24.315Z,101729.00
2022-12-27T16:40:00.776Z,101738.69
2022-12-27T16:42:29.459Z,101744.00
2022-12-27T16:45:02.681Z,101743.91
2022-12-27T16:47:39.775Z,101746.56
2022-12-27T16:50:20.942Z,101748.56
2022-12-27T16:52:59.498Z,101748.34
2022-12-27T16:55:41.515Z,101751.97
2022-12-27T16:58:32.638Z,101741.53
2022-12-27T17:01:00.313Z,101751.22
2022-12-27T17:03:46.027Z,101742.28
2022-12-27T17:06:55.095Z,101745.91
2022-12-27T17:09:42.509Z,101743.25
2022-12-27T17:12:14.745Z,101728.16
2022-12-27T17:14:44.121Z,101734.31
2022-12-27T17:17:15.555Z,101730.91
2022-12-27T17:19:45.930Z,101739.81
2022-12-27T17:22:15.663Z,101742.28
2022-12-27T17:24:43.285Z,101753.00
2022-12-27T17:27:14.924Z,101759.28
2022-12-27T17:29:55.636Z,101751.97
2022-12-27T17:32:28.510Z,101748.75
2022-12-27T17:34:58.994Z,101753.00
2022-12-27T17:37:31.734Z,101758.41
2022-12-27T17:40:09.526Z,101759.41
2022-12-27T17:42:56.024Z,101759.41
2022-12-27T17:45:31.283Z,101745.13
2022-12-27T17:48:09.611Z,101750.44
2022-12-27T17:50:37.041Z,101755.91
2022-12-27T17:53:35.482Z,101756.75
2022-12-27T17:56:29.847Z,101751.44
2022-12-27T17:59:03.125Z,101754.19
2022-12-27T18:01:30.609Z,101756.75
2022-12-27T18:03:58.061Z,101753.97
2022-12-27T18:06:25.467Z,101751.44
2022-12-27T18:08:54.191Z,101748.03
2022-12-27T18:11:27.744Z,101749.59
2022-12-27T18:13:58.788Z,101752.38
2022-12-27T18:16:29.878Z,101747.06
2022-12-27T18:18:59.839Z,101744.50
2022-12-27T18:21:28.414Z,101756.84
2022-12-27T18:23:57.173Z,101747.06
2022-12-27T18:26:32.906Z,101753.25
2022-12-27T18:29:00.306Z,101746.09
2022-12-27T18:31:29.634Z,101752.47
2022-12-27T18:33:58.050Z,101753.41
2022-12-27T18:36:27.607Z,101740.13
2022-12-27T18:38:58.826Z,101753.41
2022-12-27T18:41:26.257Z,101743.63
2022-12-27T18:43:55.823Z,101746.28
2022-12-27T18:46:26.949Z,101741.06
2022-12-27T18:48:54.435Z,101740.22
2022-12-27T18:51:21.840Z,101737.56
2022-12-27T18:53:49.263Z,101728.66
2022-12-27T18:56:29.080Z,101741.06
2022-12-27T18:59:00.502Z,101734.81
2022-12-27T19:01:30.508Z,101733.97
2022-12-27T19:04:19.412Z,101731.31
2022-12-27T19:06:49.354Z,101735.66
2022-12-27T19:09:17.092Z,101740.22
2022-12-27T19:11:51.214Z,101732.25
2022-12-27T19:14:18.629Z,101727.88
2022-12-27T19:16:49.262Z,101723.44
2022-12-27T19:19:17.637Z,101723.44
2022-12-27T19:21:45.031Z,101717.25
2022-12-27T19:24:36.611Z,101713.75
2022-12-27T19:27:17.131Z,101711.19
2022-12-27T19:29:48.545Z,101707.59
2022-12-27T19:32:16.036Z,101705.16
2022-12-27T19:34:44.780Z,101714.81
2022-12-27T19:37:12.337Z,101711.09
2022-12-27T19:39:40.154Z,101721.72
2022-12-27T19:42:08.597Z,101728.75
2022-12-27T19:44:37.868Z,101720.88
2022-12-27T19:47:05.301Z,101719.16
2022-12-27T19:49:47.911Z,101721.94
2022-12-27T19:52:16.675Z,101722.66
2022-12-27T19:54:44.099Z,101727.03
2022-12-27T19:57:12.512Z,101720.97
2022-12-27T19:59:41.278Z,101711.31
2022-12-27T20:02:09.208Z,101720.13
2022-12-27T20:04:37.011Z,101710.47
2022-12-27T20:07:04.452Z,101710.47
2022-12-27T20:09:31.882Z,101705.25
2022-12-27T20:11:59.301Z,101705.16
2022-12-27T20:14:26.718Z,101708.66
2022-12-27T20:16:55.632Z,101706.97
2022-12-27T20:19:23.941Z,101706.84
2022-12-27T20:21:51.379Z,101710.47
2022-12-27T20:24:18.808Z,101709.50
2022-12-27T20:26:46.211Z,101703.44
2022-12-27T20:29:15.019Z,101706.97
2022-12-27T20:31:45.447Z,101708.75
2022-12-27T20:34:14.452Z,101709.72
2022-12-27T20:36:42.636Z,101701.75
2022-12-27T20:39:10.049Z,101711.41
2022-12-27T20:41:37.491Z,101707.06
2022-12-27T20:44:05.082Z,101699.19
2022-12-27T20:46:32.481Z,101702.59
2022-12-27T20:49:00.867Z,101694.72
2022-12-27T20:51:31.590Z,101696.44
2022-12-27T20:53:59.705Z,101688.56
2022-12-27T20:56:27.201Z,101682.28
2022-12-27T20:58:54.699Z,101682.41
2022-12-27T21:01:26.209Z,101684.00
2022-12-27T21:03:55.309Z,101681.53
2022-12-27T21:06:23.883Z,101685.81
2022-12-27T21:08:57.188Z,101685.06
2022-12-27T21:11:26.744Z,101684.28
2022-12-27T21:13:54.159Z,101690.16
2022-12-27T21:16:22.685Z,101687.72
2022-12-27T21:18:50.405Z,101692.25
2022-12-27T21:21:19.752Z,101677.09
2022-12-27T21:23:47.418Z,101678.78
2022-12-27T21:26:16.804Z,101663.91
2022-12-27T21:28:44.287Z,101664.75
2022-12-27T21:31:11.823Z,101669.13
2022-12-27T21:33:39.332Z,101663.03
2022-12-27T21:36:08.928Z,101671.78
2022-12-27T21:38:36.338Z,101671.78
2022-12-27T21:41:04.412Z,101664.84
2022-12-27T21:43:33.724Z,101671.00
2022-12-27T21:46:05.346Z,101668.34
2022-12-27T21:48:32.787Z,101667.41
2022-12-27T21:51:04.960Z,101658.59
2022-12-27T21:53:32.379Z,101655.19
2022-12-27T21:55:59.806Z,101660.28
2022-12-27T21:58:27.235Z,101661.38
2022-12-27T22:00:58.073Z,101661.38
2022-12-27T22:03:25.871Z,101660.50
2022-12-27T22:05:53.407Z,101659.66
2022-12-27T22:08:20.825Z,101664.00
2022-12-27T22:10:54.989Z,101659.66
2022-12-27T22:13:22.457Z,101655.06
2022-12-27T22:15:56.854Z,101647.34
2022-12-27T22:18:24.405Z,101642.13
2022-12-27T22:20:51.899Z,101636.72
2022-12-27T22:23:19.321Z,101626.09
2022-12-27T22:25:46.713Z,101632.25
2022-12-27T22:28:14.167Z,101626.09
2022-12-27T22:35:21.999Z,101623.31
2022-12-27T22:38:56.075Z,101612.81
2022-12-27T22:42:11.969Z,101601.41
2022-12-27T22:52:30.489Z,101600.47
2022-12-27T22:59:47.687Z,101611.84
2022-12-27T23:06:39.254Z,101594.22
2022-12-27T23:10:38.137Z,101589.13
2022-12-27T23:14:40.178Z,101580.28
2022-12-27T23:21:47.696Z,101567.00
2022-12-27T23:25:02.141Z,101561.69
2022-12-27T23:28:39.780Z,101570.19
2022-12-27T23:31:57.373Z,101564.47
2022-12-27T23:35:23.848Z,101560.00
2022-12-27T23:42:27.008Z,101543.31
2022-12-27T23:50:21.456Z,101552.97
2022-12-27T23:53:41.878Z,101545.88
2022-12-27T23:57:19.368Z,101535.25
